首页
METAR-TAF:

METAR-TAF

机场 :

赫雷斯-德拉弗龙特拉, 西班牙

纬度: 36-45N, 经度: 006-04W, 海拔: 27米

当前天气观测

该预报发布于11分钟前的14:30 UTC
风速5节,风向,在西北北转东北之间变化
温度 18°C
湿度 73%
气压 1024 hPa
能見度: 7000
少量云层高于3500英尺
碎片雾

METAR: LEJR 291430Z 01005KT 320V030 7000 BCFG FEW035 18/13 Q1024

时间: 15:41 (14:41 UTC)

预报

该预报发布于3小时和41分钟前的11:00 UTC
预报有效从29日的 12点(UTC)到 30日的 12点(UTC)
风速5节,风向
能见度10公里或以上
少量云层高于3000英尺
几率 40% :
短暂存在
从 30日的 00点(UTC)到 30日的 11点(UTC)
能見度: 3000
轻雾
几率 30% :
短暂存在
从 30日的 04点(UTC)到 30日的 10点(UTC)
能見度: 0300
层高于100英尺

TAF: LEJR 291100Z 2912/3012 35005KT 9999 FEW030 TX18/2914Z TN05/3006Z PROB40 TEMPO 3000/3011 3000 BR PROB30 TEMPO 3004/3010 0300 FG VV001

超过4000个机场的气象观测和天气预报(METAR&TAF报告)。

可查询的气象台以黄色和红色小点在地图上表示。

将鼠标移到小点上方,可查看气象台名称。

然后点击查看天气观测和预报。

如需切换地图:点击带黑十字的绿色按钮放大地图;点击带横线的绿色按钮缩小地图;或者点击绿色箭头查看邻近地区的地图。


METAR-TAF: